createdAt,value
2024-03-04T00:04:23.975Z,13.60
2024-03-04T00:09:27.672Z,11.10
2024-03-04T00:14:30.590Z,16.20
2024-03-04T00:19:33.811Z,12.20
2024-03-04T00:24:36.811Z,9.90
2024-03-04T00:29:39.814Z,17.40
2024-03-04T00:34:42.781Z,13.50
2024-03-04T00:39:47.147Z,13.30
2024-03-04T00:44:50.126Z,5.80
2024-03-04T00:49:53.056Z,14.40
2024-03-04T00:54:55.997Z,16.20
2024-03-04T00:59:59.071Z,12.00
2024-03-04T01:05:02.285Z,13.40
2024-03-04T01:10:05.947Z,10.50
2024-03-04T01:15:09.636Z,12.80
2024-03-04T01:20:14.948Z,7.50
2024-03-04T01:25:18.014Z,11.90
2024-03-04T01:30:21.114Z,9.00
2024-03-04T01:35:24.537Z,13.70
2024-03-04T01:40:27.715Z,11.10
2024-03-04T01:45:30.759Z,11.70
2024-03-04T01:50:37.818Z,8.50
2024-03-04T01:55:45.642Z,14.50
2024-03-04T02:00:50.621Z,16.90
2024-03-04T02:05:56.077Z,8.40
2024-03-04T02:10:59.215Z,12.10
2024-03-04T02:16:02.242Z,14.70
2024-03-04T02:21:06.969Z,18.00
2024-03-04T02:26:09.848Z,13.00
2024-03-04T02:31:15.363Z,15.60
2024-03-04T02:36:19.108Z,12.10
2024-03-04T02:41:22.377Z,13.80
2024-03-04T02:46:25.917Z,17.80
2024-03-04T02:51:28.810Z,7.10
2024-03-04T02:56:31.918Z,13.00
2024-03-04T03:01:34.890Z,18.30
2024-03-04T03:06:37.997Z,13.40
2024-03-04T03:11:41.698Z,17.10
2024-03-04T03:16:44.706Z,13.50
2024-03-04T03:21:47.632Z,12.20
2024-03-04T03:26:50.647Z,16.70
2024-03-04T03:31:53.543Z,8.70
2024-03-04T03:36:56.571Z,14.80
2024-03-04T03:42:01.357Z,13.00
2024-03-04T03:47:04.423Z,13.30
2024-03-04T03:52:08.516Z,12.60
2024-03-04T03:57:11.661Z,10.60
2024-03-04T04:02:14.638Z,12.30
2024-03-04T04:07:17.607Z,7.70
2024-03-04T04:12:21.083Z,10.50
2024-03-04T04:17:23.982Z,12.70
2024-03-04T04:22:28.396Z,13.50
2024-03-04T04:27:31.551Z,13.50
2024-03-04T04:32:36.428Z,10.10
2024-03-04T04:37:39.577Z,13.90
2024-03-04T04:42:42.703Z,10.40
2024-03-04T04:47:45.555Z,10.70
2024-03-04T04:52:48.518Z,13.20
2024-03-04T04:57:51.418Z,10.50
2024-03-04T05:02:55.523Z,11.70
2024-03-04T05:07:58.763Z,12.10
2024-03-04T05:13:01.722Z,11.60
2024-03-04T05:18:04.910Z,17.20
2024-03-04T05:23:07.900Z,15.00
2024-03-04T05:28:10.844Z,8.20
2024-03-04T05:33:14.664Z,14.00
2024-03-04T05:38:18.344Z,17.40
2024-03-04T05:43:21.280Z,12.10
2024-03-04T05:48:24.258Z,11.20
2024-03-04T05:53:27.155Z,13.00
2024-03-04T05:58:30.909Z,17.90
2024-03-04T06:03:35.148Z,13.50
2024-03-04T06:08:38.125Z,12.30
2024-03-04T06:13:41.156Z,14.10
2024-03-04T06:18:44.033Z,12.70
2024-03-04T06:23:46.947Z,13.90
2024-03-04T06:28:49.946Z,13.40
2024-03-04T06:33:54.044Z,13.80
2024-03-04T06:38:57.609Z,11.20
2024-03-04T06:44:00.518Z,15.40
2024-03-04T06:49:03.388Z,12.10
2024-03-04T06:54:07.036Z,13.00
2024-03-04T06:59:09.936Z,14.80
2024-03-04T07:04:12.970Z,13.40
2024-03-04T07:09:15.857Z,11.70
2024-03-04T07:14:18.854Z,12.00
2024-03-04T07:19:22.104Z,11.00
2024-03-04T07:24:25.285Z,10.80
2024-03-04T07:29:36.284Z,13.20
2024-03-04T07:34:44.044Z,9.50
2024-03-04T07:39:47.696Z,14.20
2024-03-04T07:44:50.614Z,13.80
2024-03-04T07:49:53.710Z,11.70
2024-03-04T07:54:57.073Z,11.30
2024-03-04T07:59:59.946Z,11.40
2024-03-04T08:05:03.197Z,11.80
2024-03-04T08:10:09.898Z,11.70
2024-03-04T08:15:13.067Z,9.30
2024-03-04T08:20:20.879Z,12.00
2024-03-04T08:25:31.298Z,10.60
2024-03-04T08:30:34.265Z,9.50
2024-03-04T08:35:37.273Z,11.60
2024-03-04T08:40:40.251Z,11.30
2024-03-04T08:45:43.185Z,7.50
2024-03-04T08:50:46.084Z,9.90
2024-03-04T08:55:49.023Z,11.90
2024-03-04T09:00:51.972Z,12.40
2024-03-04T09:05:55.026Z,9.40
2024-03-04T09:10:58.046Z,10.10
2024-03-04T09:16:00.967Z,7.80
2024-03-04T09:21:04.443Z,7.20
2024-03-04T09:26:11.039Z,7.40
2024-03-04T09:31:14.049Z,8.30
2024-03-04T09:36:17.452Z,10.60
2024-03-04T09:41:20.362Z,8.90
2024-03-04T09:46:24.104Z,12.30
2024-03-04T09:51:27.801Z,8.20
2024-03-04T09:56:30.607Z,13.80
2024-03-04T10:01:34.079Z,11.00
2024-03-04T10:06:37.134Z,14.20
2024-03-04T10:11:40.927Z,15.10
2024-03-04T10:16:44.969Z,12.10
2024-03-04T10:21:48.400Z,13.30
2024-03-04T10:26:51.446Z,17.80
2024-03-04T10:31:55.359Z,15.00
2024-03-04T10:37:00.279Z,16.80
2024-03-04T10:42:04.586Z,13.60
2024-03-04T10:47:08.046Z,18.30
2024-03-04T10:52:14.193Z,13.90
2024-03-04T10:57:28.245Z,18.90
2024-03-04T11:02:39.172Z,18.80
2024-03-04T11:07:44.291Z,17.10
2024-03-04T11:12:51.654Z,14.90
2024-03-04T11:17:58.104Z,15.30
2024-03-04T11:23:01.811Z,15.00
2024-03-04T11:28:05.439Z,23.70
2024-03-04T11:33:34.713Z,20.30
2024-03-04T11:38:44.258Z,19.00
2024-03-04T11:43:48.586Z,23.80
2024-03-04T11:48:53.566Z,17.70
2024-03-04T11:53:57.383Z,17.00
2024-03-04T11:59:02.440Z,14.70
2024-03-04T12:04:07.231Z,15.10
2024-03-04T12:09:28.984Z,19.20
2024-03-04T12:14:34.100Z,16.20
2024-03-04T12:19:37.173Z,21.30
2024-03-04T12:24:40.210Z,15.80
2024-03-04T12:29:42.975Z,15.70
2024-03-04T12:34:46.716Z,13.00
2024-03-04T12:39:49.676Z,11.60
2024-03-04T12:44:52.556Z,12.60
2024-03-04T12:49:56.076Z,13.20
2024-03-04T12:54:59.587Z,16.40
2024-03-04T13:00:02.486Z,16.10
2024-03-04T13:05:06.012Z,17.20
2024-03-04T13:10:13.064Z,16.40
2024-03-04T13:15:16.319Z,15.90
2024-03-04T13:20:19.228Z,15.40
2024-03-04T13:25:22.795Z,17.50
2024-03-04T13:30:26.775Z,15.70
2024-03-04T13:35:30.103Z,17.30
2024-03-04T13:40:32.868Z,14.80
2024-03-04T13:45:35.882Z,12.00
2024-03-04T13:50:38.806Z,17.60
2024-03-04T13:55:42.194Z,11.20
2024-03-04T14:00:45.236Z,14.50
2024-03-04T14:05:48.437Z,16.60
2024-03-04T14:10:51.476Z,14.00
2024-03-04T14:15:56.743Z,12.80
2024-03-04T14:20:59.820Z,11.40
2024-03-04T14:26:02.830Z,10.60
2024-03-04T14:31:06.982Z,15.30
2024-03-04T14:36:09.974Z,17.00
2024-03-04T14:41:19.218Z,12.70
2024-03-04T14:51:25.513Z,14.10
2024-03-04T14:56:30.691Z,16.50
2024-03-04T15:01:34.848Z,12.10
2024-03-04T15:06:38.046Z,10.60
2024-03-04T15:11:42.769Z,15.40
2024-03-04T15:16:50.944Z,11.70
2024-03-04T15:21:54.638Z,9.70
2024-03-04T15:26:57.662Z,13.20
2024-03-04T15:32:03.638Z,14.50
2024-03-04T15:37:06.888Z,13.50
2024-03-04T15:42:10.682Z,13.20
2024-03-04T15:47:13.667Z,13.30
2024-03-04T15:52:16.596Z,16.60
2024-03-04T15:57:19.431Z,17.10
2024-03-04T16:02:22.485Z,19.10
2024-03-04T16:07:25.428Z,21.20
2024-03-04T16:12:28.802Z,18.50
2024-03-04T16:17:31.965Z,17.50
2024-03-04T16:22:36.539Z,16.50
2024-03-04T16:27:39.562Z,32.90
2024-03-04T16:32:44.627Z,25.40
2024-03-04T16:37:47.856Z,23.70
2024-03-04T16:42:50.849Z,20.10
2024-03-04T16:47:53.823Z,20.80
2024-03-04T16:52:56.975Z,25.40
2024-03-04T16:58:02.010Z,15.50
2024-03-04T17:03:05.841Z,18.90
2024-03-04T17:08:11.735Z,14.80
2024-03-04T17:13:14.755Z,17.10
2024-03-04T17:18:18.091Z,10.70
2024-03-04T17:23:20.911Z,17.00
2024-03-04T17:28:23.882Z,23.70
2024-03-04T17:33:27.547Z,20.20
2024-03-04T17:38:30.335Z,18.50
2024-03-04T17:43:33.277Z,16.40
2024-03-04T17:48:36.181Z,27.90
2024-03-04T17:53:39.017Z,26.10
2024-03-04T17:58:41.911Z,26.90
2024-03-04T18:03:44.885Z,21.00
2024-03-04T18:08:47.997Z,21.90
2024-03-04T18:13:50.959Z,21.00
2024-03-04T18:18:53.806Z,24.30
2024-03-04T18:23:57.428Z,19.40
2024-03-04T18:29:00.699Z,20.30
2024-03-04T18:34:03.755Z,19.70
2024-03-04T18:39:06.765Z,18.90
2024-03-04T18:44:09.556Z,21.90
2024-03-04T18:49:15.087Z,16.80
2024-03-04T18:54:18.935Z,28.90
2024-03-04T18:59:22.466Z,22.80
2024-03-04T19:04:25.461Z,21.30
2024-03-04T19:09:28.385Z,20.00
2024-03-04T19:14:31.286Z,17.80
2024-03-04T19:19:34.119Z,22.20
2024-03-04T19:24:39.658Z,20.20
2024-03-04T19:29:42.512Z,22.10
2024-03-04T19:34:45.655Z,16.40
2024-03-04T19:39:48.775Z,20.80
2024-03-04T19:44:51.989Z,24.70
2024-03-04T19:49:54.926Z,21.50
2024-03-04T19:54:57.902Z,14.90
2024-03-04T20:00:02.135Z,18.50
2024-03-04T20:05:06.184Z,20.90
2024-03-04T20:10:10.612Z,20.20
2024-03-04T20:15:13.825Z,15.80
2024-03-04T20:20:16.735Z,23.70
2024-03-04T20:25:19.978Z,15.40
2024-03-04T20:30:22.945Z,11.70
2024-03-04T20:35:25.949Z,13.90
2024-03-04T20:40:30.759Z,16.80
2024-03-04T20:45:34.120Z,12.00
2024-03-04T20:50:37.316Z,12.80
2024-03-04T20:55:40.768Z,14.10
2024-03-04T21:00:43.656Z,12.30
2024-03-04T21:05:46.551Z,11.20
2024-03-04T21:10:49.538Z,11.60
2024-03-04T21:15:52.659Z,14.10
2024-03-04T21:20:55.566Z,15.30
2024-03-04T21:25:58.530Z,23.20
2024-03-04T21:31:01.478Z,19.20
2024-03-04T21:36:04.905Z,18.60
2024-03-04T21:41:07.845Z,13.10
2024-03-04T21:46:10.937Z,8.40
2024-03-04T21:51:14.123Z,11.70
2024-03-04T21:56:17.025Z,12.50
2024-03-04T22:01:23.679Z,7.90
2024-03-04T22:06:26.742Z,12.90
2024-03-04T22:11:29.695Z,13.10
2024-03-04T22:16:32.659Z,14.40
2024-03-04T22:21:36.262Z,11.50
2024-03-04T22:26:39.167Z,9.80
2024-03-04T22:31:42.914Z,12.20
2024-03-04T22:36:45.957Z,13.30
2024-03-04T22:41:49.534Z,11.80
2024-03-04T22:46:52.618Z,12.00
2024-03-04T22:51:56.352Z,13.00
2024-03-04T22:56:59.179Z,13.50
2024-03-04T23:02:02.217Z,12.60
2024-03-04T23:07:05.275Z,12.00
2024-03-04T23:12:10.353Z,11.10
2024-03-04T23:17:14.047Z,14.00
2024-03-04T23:22:17.072Z,10.80
2024-03-04T23:27:20.772Z,9.90
2024-03-04T23:32:28.132Z,10.60
2024-03-04T23:37:31.118Z,16.30
2024-03-04T23:42:35.010Z,10.90
2024-03-04T23:47:37.893Z,15.20
2024-03-04T23:52:41.898Z,13.50
2024-03-04T23:57:44.875Z,15.50
